Airfield :







YOU CAN JOIN US ON...

 
LOGIN :

Register | Disclaimer

   EN    FR    IT 

 









Legend :    VFR   Marginal VFR   IFR   Intensive IFR   Very Intensive IFR
Visi :
Ceiling :
>= 8 km
>= 3000ft
5 to 8 km
1000 to 3000 ft
1500m to 5 km
500 to 1000 ft
800 to 1500m
200 to 500 ft
< 800m
< 200 ft
Symbols :   Thunderstorms  Fog  Heavy snow  Heavy precipitations  Wind > 20 kt






- Airport Elevation : 68 ft
- IATA code : YFC


CYFC - Fredericton

CURRENT METAR :
  • 150300Z AUTO 34003KT 280V360 3/4SM R09/4000VP6000FT/ -RA BR VV005 03/03 A2923 RMK SLP901

EXPIRED METARs :
  • 150247Z AUTO 00000KT 3/4SM R09/4500VP6000FT/ -RA BR VV004 04/04 A2924 RMK SLP905
  • 150200Z AUTO 33004KT 330V030 1/2SM R09/4000FT/D -RA FG VV005 04/04 A2927 RMK SLP913
  • 150149Z AUTO 04002KT 5/8SM R09/3000VP6000FT -RA BR VV005 04/04 A2928 RMK SLP917
  • 150100Z AUTO 01008KT 220V020 1SM R09/P6000FT/D -RA BR VV004 04/04 A2929 RMK PRESFR SLP922

TAF AMD TAF CYFC
Valid from the 15 at 02:00 until the 15 at 12:00 UTC


150205Z 1502/1512 VRB03KT 1/2SM -RA FG VV005
TEMPO 1502/1509 2SM BR OVC006
BECMG 1502/1504 17010KT
FM150900 18015G25KT P6SM SCT008 BKN012
TEMPO 1509/1512 5SM BR BKN008 RMK FCST BASED ON AUTO OBS. NXT FCST BY 150600Z



MET'MAP, your aeronautical weather chart ! - Copyright ORBIFLY December 2007 - Disclaimer

ORBIFLY MET'MAP TEAM :

Programming & Development : Alexandra Zaïnal
Concept & original design : Baudouin d'Aumeries
Assistance for programming : Marc-Olivier Méhu
Technical & hardware support : Manuel Goepfert

Contact : metmap@orbifly.com




SOURCES & CREDITS :

   NOAA